sensor_id;sensor_type;location;lat;lon;timestamp;P1;durP1;ratioP1;P2;durP2;ratioP2
34657;SDS011;20865;43.312;27.152;2022-10-16T00:01:35;10.93;;;5.25;;
34657;SDS011;20865;43.312;27.152;2022-10-16T00:04:03;11.83;;;5.10;;
34657;SDS011;20865;43.312;27.152;2022-10-16T00:06:31;10.82;;;5.40;;
34657;SDS011;20865;43.312;27.152;2022-10-16T00:08:58;11.45;;;5.42;;
34657;SDS011;20865;43.312;27.152;2022-10-16T00:11:30;11.55;;;5.80;;
34657;SDS011;20865;43.312;27.152;2022-10-16T00:14:00;9.05;;;4.87;;
34657;SDS011;20865;43.312;27.152;2022-10-16T00:16:29;7.37;;;4.42;;
34657;SDS011;20865;43.312;27.152;2022-10-16T00:18:57;8.85;;;4.72;;
34657;SDS011;20865;43.312;27.152;2022-10-16T00:21:27;8.43;;;4.83;;
34657;SDS011;20865;43.312;27.152;2022-10-16T00:24:01;10.68;;;5.47;;
34657;SDS011;20865;43.312;27.152;2022-10-16T00:26:26;8.33;;;5.00;;
34657;SDS011;20865;43.312;27.152;2022-10-16T00:28:55;10.08;;;5.47;;
34657;SDS011;20865;43.312;27.152;2022-10-16T00:31:23;8.83;;;5.03;;
34657;SDS011;20865;43.312;27.152;2022-10-16T00:33:52;9.03;;;5.15;;
34657;SDS011;20865;43.312;27.152;2022-10-16T00:36:21;9.60;;;5.50;;
34657;SDS011;20865;43.312;27.152;2022-10-16T00:38:55;9.08;;;5.83;;
34657;SDS011;20865;43.312;27.152;2022-10-16T00:41:20;13.32;;;5.85;;
34657;SDS011;20865;43.312;27.152;2022-10-16T00:43:50;14.20;;;6.35;;
34657;SDS011;20865;43.312;27.152;2022-10-16T00:46:23;11.65;;;6.12;;
34657;SDS011;20865;43.312;27.152;2022-10-16T00:49:07;11.22;;;5.83;;
34657;SDS011;20865;43.312;27.152;2022-10-16T00:51:37;10.58;;;5.92;;
34657;SDS011;20865;43.312;27.152;2022-10-16T00:54:10;9.38;;;5.83;;
34657;SDS011;20865;43.312;27.152;2022-10-16T00:56:41;9.13;;;5.45;;
34657;SDS011;20865;43.312;27.152;2022-10-16T00:59:23;12.68;;;6.67;;
34657;SDS011;20865;43.312;27.152;2022-10-16T01:01:53;14.13;;;6.85;;
34657;SDS011;20865;43.312;27.152;2022-10-16T01:04:21;9.55;;;6.33;;
34657;SDS011;20865;43.312;27.152;2022-10-16T01:09:37;10.85;;;5.90;;
34657;SDS011;20865;43.312;27.152;2022-10-16T01:12:20;11.80;;;6.13;;
34657;SDS011;20865;43.312;27.152;2022-10-16T01:17:32;11.35;;;6.17;;
34657;SDS011;20865;43.312;27.152;2022-10-16T01:20:05;10.70;;;5.55;;
34657;SDS011;20865;43.312;27.152;2022-10-16T01:22:37;9.90;;;5.90;;
34657;SDS011;20865;43.312;27.152;2022-10-16T01:25:05;13.00;;;6.28;;
34657;SDS011;20865;43.312;27.152;2022-10-16T01:27:35;16.17;;;6.20;;
34657;SDS011;20865;43.312;27.152;2022-10-16T01:30:13;13.62;;;6.55;;
34657;SDS011;20865;43.312;27.152;2022-10-16T01:35:35;16.25;;;7.72;;
34657;SDS011;20865;43.312;27.152;2022-10-16T01:40:38;12.82;;;7.25;;
34657;SDS011;20865;43.312;27.152;2022-10-16T01:43:10;12.65;;;7.03;;
34657;SDS011;20865;43.312;27.152;2022-10-16T01:45:38;15.23;;;6.75;;
34657;SDS011;20865;43.312;27.152;2022-10-16T01:48:09;14.33;;;6.37;;
34657;SDS011;20865;43.312;27.152;2022-10-16T01:50:39;13.83;;;6.45;;
34657;SDS011;20865;43.312;27.152;2022-10-16T01:53:10;10.68;;;5.65;;
34657;SDS011;20865;43.312;27.152;2022-10-16T01:55:40;10.30;;;4.85;;
34657;SDS011;20865;43.312;27.152;2022-10-16T01:58:10;9.23;;;5.25;;
34657;SDS011;20865;43.312;27.152;2022-10-16T02:00:40;8.55;;;5.45;;
34657;SDS011;20865;43.312;27.152;2022-10-16T02:03:11;10.20;;;5.58;;
34657;SDS011;20865;43.312;27.152;2022-10-16T02:05:43;9.75;;;6.47;;
34657;SDS011;20865;43.312;27.152;2022-10-16T02:08:14;10.55;;;5.70;;
34657;SDS011;20865;43.312;27.152;2022-10-16T02:10:42;10.88;;;6.45;;
34657;SDS011;20865;43.312;27.152;2022-10-16T02:13:13;12.70;;;6.37;;
34657;SDS011;20865;43.312;27.152;2022-10-16T02:15:46;12.10;;;6.72;;
34657;SDS011;20865;43.312;27.152;2022-10-16T02:18:13;11.73;;;6.15;;
34657;SDS011;20865;43.312;27.152;2022-10-16T02:20:50;9.00;;;6.20;;
34657;SDS011;20865;43.312;27.152;2022-10-16T02:23:27;14.70;;;6.55;;
34657;SDS011;20865;43.312;27.152;2022-10-16T02:25:55;17.10;;;6.50;;
34657;SDS011;20865;43.312;27.152;2022-10-16T02:28:27;10.90;;;6.97;;
34657;SDS011;20865;43.312;27.152;2022-10-16T02:31:01;14.50;;;6.30;;
34657;SDS011;20865;43.312;27.152;2022-10-16T02:33:26;11.93;;;6.10;;
34657;SDS011;20865;43.312;27.152;2022-10-16T02:35:56;11.78;;;6.20;;
34657;SDS011;20865;43.312;27.152;2022-10-16T02:38:24;13.80;;;6.50;;
34657;SDS011;20865;43.312;27.152;2022-10-16T02:40:53;17.12;;;7.17;;
34657;SDS011;20865;43.312;27.152;2022-10-16T02:43:22;9.60;;;6.03;;
34657;SDS011;20865;43.312;27.152;2022-10-16T02:45:51;8.88;;;5.50;;
34657;SDS011;20865;43.312;27.152;2022-10-16T02:48:19;10.08;;;5.97;;
34657;SDS011;20865;43.312;27.152;2022-10-16T02:50:46;12.40;;;5.72;;
34657;SDS011;20865;43.312;27.152;2022-10-16T02:53:14;13.03;;;5.87;;
34657;SDS011;20865;43.312;27.152;2022-10-16T02:55:41;11.48;;;6.10;;
34657;SDS011;20865;43.312;27.152;2022-10-16T02:58:09;9.55;;;6.00;;
34657;SDS011;20865;43.312;27.152;2022-10-16T03:00:37;10.58;;;6.25;;
34657;SDS011;20865;43.312;27.152;2022-10-16T03:03:04;13.93;;;6.90;;
34657;SDS011;20865;43.312;27.152;2022-10-16T03:05:32;10.58;;;6.08;;
34657;SDS011;20865;43.312;27.152;2022-10-16T03:07:59;13.18;;;6.45;;
34657;SDS011;20865;43.312;27.152;2022-10-16T03:10:27;10.23;;;5.75;;
34657;SDS011;20865;43.312;27.152;2022-10-16T03:12:55;13.00;;;6.37;;
34657;SDS011;20865;43.312;27.152;2022-10-16T03:15:22;11.88;;;6.50;;
34657;SDS011;20865;43.312;27.152;2022-10-16T03:17:51;14.95;;;6.92;;
34657;SDS011;20865;43.312;27.152;2022-10-16T03:20:18;17.50;;;6.67;;
34657;SDS011;20865;43.312;27.152;2022-10-16T03:22:46;12.28;;;6.35;;
34657;SDS011;20865;43.312;27.152;2022-10-16T03:25:14;11.60;;;6.50;;
34657;SDS011;20865;43.312;27.152;2022-10-16T03:27:42;12.55;;;6.00;;
34657;SDS011;20865;43.312;27.152;2022-10-16T03:30:10;10.80;;;6.20;;
34657;SDS011;20865;43.312;27.152;2022-10-16T03:32:38;15.93;;;7.55;;
34657;SDS011;20865;43.312;27.152;2022-10-16T03:35:05;9.93;;;6.20;;
34657;SDS011;20865;43.312;27.152;2022-10-16T03:37:33;12.98;;;7.28;;
34657;SDS011;20865;43.312;27.152;2022-10-16T03:40:02;10.60;;;6.65;;
34657;SDS011;20865;43.312;27.152;2022-10-16T03:42:30;9.78;;;5.65;;
34657;SDS011;20865;43.312;27.152;2022-10-16T03:44:58;10.10;;;5.72;;
34657;SDS011;20865;43.312;27.152;2022-10-16T03:47:25;11.60;;;6.10;;
34657;SDS011;20865;43.312;27.152;2022-10-16T03:49:53;10.35;;;6.60;;
34657;SDS011;20865;43.312;27.152;2022-10-16T03:52:21;13.43;;;6.83;;
34657;SDS011;20865;43.312;27.152;2022-10-16T03:54:48;11.68;;;6.40;;
34657;SDS011;20865;43.312;27.152;2022-10-16T03:57:16;13.00;;;6.22;;
34657;SDS011;20865;43.312;27.152;2022-10-16T03:59:44;11.12;;;6.42;;
34657;SDS011;20865;43.312;27.152;2022-10-16T04:02:12;17.15;;;7.40;;
34657;SDS011;20865;43.312;27.152;2022-10-16T04:04:40;16.02;;;6.53;;
34657;SDS011;20865;43.312;27.152;2022-10-16T04:07:07;12.60;;;6.55;;
34657;SDS011;20865;43.312;27.152;2022-10-16T04:09:35;11.90;;;6.12;;
34657;SDS011;20865;43.312;27.152;2022-10-16T04:12:02;11.60;;;5.78;;
34657;SDS011;20865;43.312;27.152;2022-10-16T04:14:30;10.20;;;6.10;;
34657;SDS011;20865;43.312;27.152;2022-10-16T04:16:58;10.32;;;6.08;;
34657;SDS011;20865;43.312;27.152;2022-10-16T04:19:25;11.20;;;6.50;;
34657;SDS011;20865;43.312;27.152;2022-10-16T04:21:53;11.45;;;6.33;;
34657;SDS011;20865;43.312;27.152;2022-10-16T04:24:20;12.70;;;6.45;;
34657;SDS011;20865;43.312;27.152;2022-10-16T04:26:48;11.10;;;6.03;;
34657;SDS011;20865;43.312;27.152;2022-10-16T04:29:15;10.32;;;6.78;;
34657;SDS011;20865;43.312;27.152;2022-10-16T04:31:43;14.58;;;7.33;;
34657;SDS011;20865;43.312;27.152;2022-10-16T04:34:12;11.48;;;6.22;;
34657;SDS011;20865;43.312;27.152;2022-10-16T04:36:40;11.60;;;5.72;;
34657;SDS011;20865;43.312;27.152;2022-10-16T04:39:07;10.75;;;6.45;;
34657;SDS011;20865;43.312;27.152;2022-10-16T04:41:35;12.68;;;6.60;;
34657;SDS011;20865;43.312;27.152;2022-10-16T04:44:03;11.88;;;6.28;;
34657;SDS011;20865;43.312;27.152;2022-10-16T04:46:30;11.83;;;6.28;;
34657;SDS011;20865;43.312;27.152;2022-10-16T04:48:58;10.32;;;6.28;;
34657;SDS011;20865;43.312;27.152;2022-10-16T04:51:25;12.90;;;6.05;;
34657;SDS011;20865;43.312;27.152;2022-10-16T04:53:53;12.68;;;6.65;;
34657;SDS011;20865;43.312;27.152;2022-10-16T04:56:21;11.45;;;6.22;;
34657;SDS011;20865;43.312;27.152;2022-10-16T04:58:50;12.05;;;6.58;;
34657;SDS011;20865;43.312;27.152;2022-10-16T05:01:17;16.32;;;6.35;;
34657;SDS011;20865;43.312;27.152;2022-10-16T05:03:45;17.32;;;6.55;;
34657;SDS011;20865;43.312;27.152;2022-10-16T05:06:12;16.40;;;7.20;;
34657;SDS011;20865;43.312;27.152;2022-10-16T05:08:40;14.35;;;6.33;;
34657;SDS011;20865;43.312;27.152;2022-10-16T05:11:08;15.30;;;7.28;;
34657;SDS011;20865;43.312;27.152;2022-10-16T05:13:36;11.57;;;6.40;;
34657;SDS011;20865;43.312;27.152;2022-10-16T05:16:03;11.22;;;6.22;;
34657;SDS011;20865;43.312;27.152;2022-10-16T05:18:31;18.85;;;6.65;;
34657;SDS011;20865;43.312;27.152;2022-10-16T05:20:59;11.78;;;6.20;;
34657;SDS011;20865;43.312;27.152;2022-10-16T05:23:26;10.90;;;6.03;;
34657;SDS011;20865;43.312;27.152;2022-10-16T05:25:55;11.70;;;6.33;;
34657;SDS011;20865;43.312;27.152;2022-10-16T05:28:24;13.00;;;6.67;;
34657;SDS011;20865;43.312;27.152;2022-10-16T05:30:53;10.68;;;6.58;;
34657;SDS011;20865;43.312;27.152;2022-10-16T05:33:21;10.53;;;6.12;;
34657;SDS011;20865;43.312;27.152;2022-10-16T05:35:50;9.20;;;5.75;;
34657;SDS011;20865;43.312;27.152;2022-10-16T05:38:18;14.03;;;7.05;;
34657;SDS011;20865;43.312;27.152;2022-10-16T05:40:51;9.35;;;6.10;;
34657;SDS011;20865;43.312;27.152;2022-10-16T05:43:21;12.95;;;6.08;;
34657;SDS011;20865;43.312;27.152;2022-10-16T05:45:59;9.50;;;5.90;;
34657;SDS011;20865;43.312;27.152;2022-10-16T05:48:31;10.45;;;6.03;;
34657;SDS011;20865;43.312;27.152;2022-10-16T05:50:59;9.98;;;6.28;;
34657;SDS011;20865;43.312;27.152;2022-10-16T05:53:33;10.65;;;6.37;;
34657;SDS011;20865;43.312;27.152;2022-10-16T05:56:02;9.15;;;5.50;;
34657;SDS011;20865;43.312;27.152;2022-10-16T05:58:32;14.38;;;7.87;;
34657;SDS011;20865;43.312;27.152;2022-10-16T06:01:03;10.30;;;6.00;;
34657;SDS011;20865;43.312;27.152;2022-10-16T06:03:32;10.40;;;5.90;;
34657;SDS011;20865;43.312;27.152;2022-10-16T06:06:13;11.00;;;5.97;;
34657;SDS011;20865;43.312;27.152;2022-10-16T06:08:43;9.75;;;5.92;;
34657;SDS011;20865;43.312;27.152;2022-10-16T06:11:13;11.30;;;5.72;;
34657;SDS011;20865;43.312;27.152;2022-10-16T06:13:42;10.53;;;5.87;;
34657;SDS011;20865;43.312;27.152;2022-10-16T06:16:11;8.15;;;5.20;;
34657;SDS011;20865;43.312;27.152;2022-10-16T06:18:39;10.13;;;5.92;;
34657;SDS011;20865;43.312;27.152;2022-10-16T06:21:08;8.65;;;4.90;;
34657;SDS011;20865;43.312;27.152;2022-10-16T06:23:40;6.67;;;4.05;;
34657;SDS011;20865;43.312;27.152;2022-10-16T06:26:08;8.58;;;4.50;;
34657;SDS011;20865;43.312;27.152;2022-10-16T06:28:38;6.95;;;3.67;;
34657;SDS011;20865;43.312;27.152;2022-10-16T06:31:07;6.55;;;3.80;;
34657;SDS011;20865;43.312;27.152;2022-10-16T06:33:37;7.35;;;3.67;;
34657;SDS011;20865;43.312;27.152;2022-10-16T06:36:06;5.47;;;3.52;;
34657;SDS011;20865;43.312;27.152;2022-10-16T06:38:38;5.92;;;3.45;;
34657;SDS011;20865;43.312;27.152;2022-10-16T06:41:07;6.03;;;3.22;;
34657;SDS011;20865;43.312;27.152;2022-10-16T06:43:36;11.30;;;3.92;;
34657;SDS011;20865;43.312;27.152;2022-10-16T06:46:04;6.22;;;3.25;;
34657;SDS011;20865;43.312;27.152;2022-10-16T06:48:34;9.20;;;3.67;;
34657;SDS011;20865;43.312;27.152;2022-10-16T06:51:03;7.03;;;3.92;;
34657;SDS011;20865;43.312;27.152;2022-10-16T06:53:33;6.97;;;2.90;;
34657;SDS011;20865;43.312;27.152;2022-10-16T06:56:16;6.70;;;3.58;;
34657;SDS011;20865;43.312;27.152;2022-10-16T06:58:41;6.25;;;3.20;;
34657;SDS011;20865;43.312;27.152;2022-10-16T07:01:10;6.70;;;3.25;;
34657;SDS011;20865;43.312;27.152;2022-10-16T07:03:40;6.08;;;3.35;;
34657;SDS011;20865;43.312;27.152;2022-10-16T07:06:09;5.65;;;3.08;;
34657;SDS011;20865;43.312;27.152;2022-10-16T07:08:40;5.50;;;3.47;;
34657;SDS011;20865;43.312;27.152;2022-10-16T07:11:09;17.50;;;3.65;;
34657;SDS011;20865;43.312;27.152;2022-10-16T07:13:39;10.03;;;3.27;;
34657;SDS011;20865;43.312;27.152;2022-10-16T07:16:19;7.42;;;3.22;;
34657;SDS011;20865;43.312;27.152;2022-10-16T07:18:49;8.10;;;3.50;;
34657;SDS011;20865;43.312;27.152;2022-10-16T07:21:19;8.55;;;3.58;;
34657;SDS011;20865;43.312;27.152;2022-10-16T07:23:51;6.42;;;3.40;;
34657;SDS011;20865;43.312;27.152;2022-10-16T07:26:20;6.60;;;3.55;;
34657;SDS011;20865;43.312;27.152;2022-10-16T07:28:49;5.17;;;3.10;;
34657;SDS011;20865;43.312;27.152;2022-10-16T07:31:18;4.10;;;3.00;;
34657;SDS011;20865;43.312;27.152;2022-10-16T07:33:47;4.20;;;2.72;;
34657;SDS011;20865;43.312;27.152;2022-10-16T07:36:15;11.80;;;2.60;;
34657;SDS011;20865;43.312;27.152;2022-10-16T07:38:44;4.40;;;2.58;;
34657;SDS011;20865;43.312;27.152;2022-10-16T07:41:17;3.65;;;2.67;;
34657;SDS011;20865;43.312;27.152;2022-10-16T07:43:52;7.67;;;2.80;;
34657;SDS011;20865;43.312;27.152;2022-10-16T07:46:15;4.65;;;2.67;;
34657;SDS011;20865;43.312;27.152;2022-10-16T07:48:43;2.80;;;2.50;;
34657;SDS011;20865;43.312;27.152;2022-10-16T07:51:13;7.92;;;3.40;;
34657;SDS011;20865;43.312;27.152;2022-10-16T07:53:43;3.12;;;2.37;;
34657;SDS011;20865;43.312;27.152;2022-10-16T07:56:10;3.77;;;2.70;;
34657;SDS011;20865;43.312;27.152;2022-10-16T07:58:38;4.58;;;2.72;;
34657;SDS011;20865;43.312;27.152;2022-10-16T08:01:07;5.25;;;2.83;;
34657;SDS011;20865;43.312;27.152;2022-10-16T08:03:36;4.87;;;2.80;;
34657;SDS011;20865;43.312;27.152;2022-10-16T08:06:04;3.67;;;2.35;;
34657;SDS011;20865;43.312;27.152;2022-10-16T08:08:32;13.48;;;3.47;;
34657;SDS011;20865;43.312;27.152;2022-10-16T08:11:00;7.40;;;3.25;;
34657;SDS011;20865;43.312;27.152;2022-10-16T08:13:30;4.08;;;2.72;;
34657;SDS011;20865;43.312;27.152;2022-10-16T08:15:58;10.45;;;2.45;;
34657;SDS011;20865;43.312;27.152;2022-10-16T08:18:26;3.58;;;2.35;;
34657;SDS011;20865;43.312;27.152;2022-10-16T08:20:57;5.22;;;2.27;;
34657;SDS011;20865;43.312;27.152;2022-10-16T08:23:26;6.20;;;2.22;;
34657;SDS011;20865;43.312;27.152;2022-10-16T08:25:54;4.25;;;2.30;;
34657;SDS011;20865;43.312;27.152;2022-10-16T08:28:23;3.45;;;2.17;;
34657;SDS011;20865;43.312;27.152;2022-10-16T08:30:51;4.92;;;1.98;;
34657;SDS011;20865;43.312;27.152;2022-10-16T08:33:18;3.85;;;2.30;;
34657;SDS011;20865;43.312;27.152;2022-10-16T08:35:52;4.78;;;2.67;;
34657;SDS011;20865;43.312;27.152;2022-10-16T08:38:20;3.08;;;1.90;;
34657;SDS011;20865;43.312;27.152;2022-10-16T08:40:48;4.15;;;2.17;;
34657;SDS011;20865;43.312;27.152;2022-10-16T08:43:20;3.52;;;2.12;;
34657;SDS011;20865;43.312;27.152;2022-10-16T08:51:36;3.47;;;2.35;;
34657;SDS011;20865;43.312;27.152;2022-10-16T08:53:57;3.67;;;2.77;;
34657;SDS011;20865;43.312;27.152;2022-10-16T08:56:27;5.10;;;3.02;;
34657;SDS011;20865;43.312;27.152;2022-10-16T08:58:54;6.70;;;2.33;;
34657;SDS011;20865;43.312;27.152;2022-10-16T09:01:24;5.42;;;2.72;;
34657;SDS011;20865;43.312;27.152;2022-10-16T09:04:20;3.90;;;2.77;;
34657;SDS011;20865;43.312;27.152;2022-10-16T09:06:46;3.60;;;2.42;;
34657;SDS011;20865;43.312;27.152;2022-10-16T09:14:41;4.97;;;2.98;;
34657;SDS011;20865;43.312;27.152;2022-10-16T09:25:47;8.55;;;2.45;;
34657;SDS011;20865;43.312;27.152;2022-10-16T09:28:17;5.80;;;2.30;;
34657;SDS011;20865;43.312;27.152;2022-10-16T09:30:47;9.23;;;2.58;;
34657;SDS011;20865;43.312;27.152;2022-10-16T09:33:15;5.30;;;2.67;;
34657;SDS011;20865;43.312;27.152;2022-10-16T09:35:49;6.67;;;2.25;;
34657;SDS011;20865;43.312;27.152;2022-10-16T09:38:25;5.75;;;2.40;;
34657;SDS011;20865;43.312;27.152;2022-10-16T09:40:54;3.70;;;2.15;;
34657;SDS011;20865;43.312;27.152;2022-10-16T09:43:27;9.93;;;2.12;;
34657;SDS011;20865;43.312;27.152;2022-10-16T09:46:07;3.22;;;1.87;;
34657;SDS011;20865;43.312;27.152;2022-10-16T09:48:37;3.37;;;1.92;;
34657;SDS011;20865;43.312;27.152;2022-10-16T09:51:26;2.67;;;1.72;;
34657;SDS011;20865;43.312;27.152;2022-10-16T09:54:02;3.95;;;1.60;;
34657;SDS011;20865;43.312;27.152;2022-10-16T09:56:35;3.15;;;1.82;;
34657;SDS011;20865;43.312;27.152;2022-10-16T10:01:48;3.67;;;1.60;;
34657;SDS011;20865;43.312;27.152;2022-10-16T10:04:14;2.60;;;1.72;;
34657;SDS011;20865;43.312;27.152;2022-10-16T10:11:55;1.87;;;1.37;;
34657;SDS011;20865;43.312;27.152;2022-10-16T10:19:42;6.95;;;1.90;;
34657;SDS011;20865;43.312;27.152;2022-10-16T10:22:18;3.12;;;1.87;;
34657;SDS011;20865;43.312;27.152;2022-10-16T10:27:39;3.33;;;1.30;;
34657;SDS011;20865;43.312;27.152;2022-10-16T10:30:29;2.47;;;1.52;;
34657;SDS011;20865;43.312;27.152;2022-10-16T10:35:45;2.85;;;1.20;;
34657;SDS011;20865;43.312;27.152;2022-10-16T10:38:30;1.98;;;1.30;;
34657;SDS011;20865;43.312;27.152;2022-10-16T10:49:39;3.65;;;1.70;;
34657;SDS011;20865;43.312;27.152;2022-10-16T10:57:59;2.92;;;1.62;;
34657;SDS011;20865;43.312;27.152;2022-10-16T11:06:06;4.42;;;1.98;;
34657;SDS011;20865;43.312;27.152;2022-10-16T11:08:47;2.75;;;1.40;;
34657;SDS011;20865;43.312;27.152;2022-10-16T11:11:20;4.05;;;1.40;;
34657;SDS011;20865;43.312;27.152;2022-10-16T11:13:59;3.15;;;1.65;;
34657;SDS011;20865;43.312;27.152;2022-10-16T11:16:28;1.62;;;1.35;;
34657;SDS011;20865;43.312;27.152;2022-10-16T11:21:51;4.30;;;1.80;;
34657;SDS011;20865;43.312;27.152;2022-10-16T11:24:35;13.32;;;1.77;;
34657;SDS011;20865;43.312;27.152;2022-10-16T11:27:12;3.35;;;1.67;;
34657;SDS011;20865;43.312;27.152;2022-10-16T11:29:44;2.08;;;1.50;;
34657;SDS011;20865;43.312;27.152;2022-10-16T11:32:16;4.37;;;1.60;;
34657;SDS011;20865;43.312;27.152;2022-10-16T11:34:50;2.35;;;1.60;;
34657;SDS011;20865;43.312;27.152;2022-10-16T11:37:24;2.80;;;1.77;;
34657;SDS011;20865;43.312;27.152;2022-10-16T11:39:58;3.02;;;1.95;;
34657;SDS011;20865;43.312;27.152;2022-10-16T11:42:30;2.87;;;1.92;;
34657;SDS011;20865;43.312;27.152;2022-10-16T11:47:51;3.05;;;1.77;;
34657;SDS011;20865;43.312;27.152;2022-10-16T11:50:36;3.58;;;1.77;;
34657;SDS011;20865;43.312;27.152;2022-10-16T11:56:04;3.52;;;1.92;;
34657;SDS011;20865;43.312;27.152;2022-10-16T11:58:41;4.55;;;2.33;;
34657;SDS011;20865;43.312;27.152;2022-10-16T12:01:13;2.40;;;1.70;;
34657;SDS011;20865;43.312;27.152;2022-10-16T12:09:27;2.47;;;1.75;;
34657;SDS011;20865;43.312;27.152;2022-10-16T12:11:58;3.08;;;2.05;;
34657;SDS011;20865;43.312;27.152;2022-10-16T12:17:03;4.17;;;1.60;;
34657;SDS011;20865;43.312;27.152;2022-10-16T12:19:57;5.80;;;1.72;;
34657;SDS011;20865;43.312;27.152;2022-10-16T12:22:27;5.92;;;1.75;;
34657;SDS011;20865;43.312;27.152;2022-10-16T12:24:57;2.33;;;1.80;;
34657;SDS011;20865;43.312;27.152;2022-10-16T12:29:57;3.55;;;1.98;;
34657;SDS011;20865;43.312;27.152;2022-10-16T12:32:31;3.20;;;2.10;;
34657;SDS011;20865;43.312;27.152;2022-10-16T12:35:00;3.00;;;1.98;;
34657;SDS011;20865;43.312;27.152;2022-10-16T12:37:31;3.65;;;2.02;;
34657;SDS011;20865;43.312;27.152;2022-10-16T12:40:11;2.47;;;1.50;;
34657;SDS011;20865;43.312;27.152;2022-10-16T12:42:43;3.12;;;2.37;;
34657;SDS011;20865;43.312;27.152;2022-10-16T12:45:44;3.95;;;2.00;;
34657;SDS011;20865;43.312;27.152;2022-10-16T12:47:54;2.98;;;1.70;;
34657;SDS011;20865;43.312;27.152;2022-10-16T12:50:29;3.15;;;1.62;;
34657;SDS011;20865;43.312;27.152;2022-10-16T12:52:59;2.00;;;1.27;;
34657;SDS011;20865;43.312;27.152;2022-10-16T12:55:32;2.25;;;1.45;;
34657;SDS011;20865;43.312;27.152;2022-10-16T12:58:09;3.37;;;1.70;;
34657;SDS011;20865;43.312;27.152;2022-10-16T13:01:02;4.10;;;2.00;;
34657;SDS011;20865;43.312;27.152;2022-10-16T13:09:25;3.72;;;1.80;;
34657;SDS011;20865;43.312;27.152;2022-10-16T13:12:14;1.40;;;1.15;;
34657;SDS011;20865;43.312;27.152;2022-10-16T13:14:54;2.23;;;1.47;;
34657;SDS011;20865;43.312;27.152;2022-10-16T13:23:06;2.60;;;1.40;;
34657;SDS011;20865;43.312;27.152;2022-10-16T13:28:46;3.45;;;1.60;;
34657;SDS011;20865;43.312;27.152;2022-10-16T13:31:21;3.17;;;1.60;;
34657;SDS011;20865;43.312;27.152;2022-10-16T13:33:51;6.00;;;1.40;;
34657;SDS011;20865;43.312;27.152;2022-10-16T13:36:22;3.60;;;1.60;;
34657;SDS011;20865;43.312;27.152;2022-10-16T13:39:06;2.95;;;1.52;;
34657;SDS011;20865;43.312;27.152;2022-10-16T13:41:34;4.42;;;1.42;;
34657;SDS011;20865;43.312;27.152;2022-10-16T13:44:01;3.02;;;1.30;;
34657;SDS011;20865;43.312;27.152;2022-10-16T13:46:30;3.85;;;1.45;;
34657;SDS011;20865;43.312;27.152;2022-10-16T13:49:06;3.55;;;1.32;;
34657;SDS011;20865;43.312;27.152;2022-10-16T13:51:41;1.07;;;0.98;;
34657;SDS011;20865;43.312;27.152;2022-10-16T13:54:24;2.12;;;1.47;;
34657;SDS011;20865;43.312;27.152;2022-10-16T13:56:54;3.65;;;1.57;;
34657;SDS011;20865;43.312;27.152;2022-10-16T13:59:23;5.62;;;1.40;;
34657;SDS011;20865;43.312;27.152;2022-10-16T14:01:53;3.05;;;1.12;;
34657;SDS011;20865;43.312;27.152;2022-10-16T14:04:23;2.00;;;1.42;;
34657;SDS011;20865;43.312;27.152;2022-10-16T14:06:53;1.87;;;1.00;;
34657;SDS011;20865;43.312;27.152;2022-10-16T14:09:25;2.58;;;1.70;;
34657;SDS011;20865;43.312;27.152;2022-10-16T14:11:55;4.33;;;1.57;;
34657;SDS011;20865;43.312;27.152;2022-10-16T14:14:25;3.80;;;1.05;;
34657;SDS011;20865;43.312;27.152;2022-10-16T14:16:55;2.45;;;1.37;;
34657;SDS011;20865;43.312;27.152;2022-10-16T14:19:26;2.50;;;1.37;;
34657;SDS011;20865;43.312;27.152;2022-10-16T14:21:56;4.08;;;1.45;;
34657;SDS011;20865;43.312;27.152;2022-10-16T14:24:30;1.80;;;1.60;;
34657;SDS011;20865;43.312;27.152;2022-10-16T14:26:59;4.67;;;1.87;;
34657;SDS011;20865;43.312;27.152;2022-10-16T14:29:28;5.60;;;1.72;;
34657;SDS011;20865;43.312;27.152;2022-10-16T14:32:02;3.50;;;1.42;;
34657;SDS011;20865;43.312;27.152;2022-10-16T14:34:34;2.15;;;1.32;;
34657;SDS011;20865;43.312;27.152;2022-10-16T14:37:08;2.02;;;1.62;;
34657;SDS011;20865;43.312;27.152;2022-10-16T14:39:51;2.70;;;1.70;;
34657;SDS011;20865;43.312;27.152;2022-10-16T14:42:20;2.90;;;1.70;;
34657;SDS011;20865;43.312;27.152;2022-10-16T14:44:50;1.70;;;1.22;;
34657;SDS011;20865;43.312;27.152;2022-10-16T14:47:20;3.27;;;1.75;;
34657;SDS011;20865;43.312;27.152;2022-10-16T14:49:52;2.00;;;1.40;;
34657;SDS011;20865;43.312;27.152;2022-10-16T14:52:21;5.55;;;1.57;;
34657;SDS011;20865;43.312;27.152;2022-10-16T14:54:49;4.78;;;1.85;;
34657;SDS011;20865;43.312;27.152;2022-10-16T14:57:20;2.85;;;1.42;;
34657;SDS011;20865;43.312;27.152;2022-10-16T14:59:49;4.30;;;1.50;;
34657;SDS011;20865;43.312;27.152;2022-10-16T15:02:23;2.80;;;1.98;;
34657;SDS011;20865;43.312;27.152;2022-10-16T15:04:53;4.50;;;2.27;;
34657;SDS011;20865;43.312;27.152;2022-10-16T15:07:21;2.72;;;1.70;;
34657;SDS011;20865;43.312;27.152;2022-10-16T15:09:50;5.80;;;2.55;;
34657;SDS011;20865;43.312;27.152;2022-10-16T15:12:18;2.83;;;2.02;;
34657;SDS011;20865;43.312;27.152;2022-10-16T15:14:45;3.50;;;1.98;;
34657;SDS011;20865;43.312;27.152;2022-10-16T15:17:14;5.12;;;2.25;;
34657;SDS011;20865;43.312;27.152;2022-10-16T15:19:42;5.28;;;2.50;;
34657;SDS011;20865;43.312;27.152;2022-10-16T15:22:10;10.28;;;3.50;;
34657;SDS011;20865;43.312;27.152;2022-10-16T15:24:38;9.45;;;3.50;;
34657;SDS011;20865;43.312;27.152;2022-10-16T15:27:06;8.63;;;4.65;;
34657;SDS011;20865;43.312;27.152;2022-10-16T15:29:33;16.62;;;7.10;;
34657;SDS011;20865;43.312;27.152;2022-10-16T15:32:04;14.15;;;7.55;;
34657;SDS011;20865;43.312;27.152;2022-10-16T15:34:31;17.92;;;8.23;;
34657;SDS011;20865;43.312;27.152;2022-10-16T15:37:06;11.38;;;6.12;;
34657;SDS011;20865;43.312;27.152;2022-10-16T15:39:30;10.70;;;4.90;;
34657;SDS011;20865;43.312;27.152;2022-10-16T15:41:58;10.75;;;4.30;;
34657;SDS011;20865;43.312;27.152;2022-10-16T15:44:25;6.37;;;3.60;;
34657;SDS011;20865;43.312;27.152;2022-10-16T15:46:55;5.87;;;3.22;;
34657;SDS011;20865;43.312;27.152;2022-10-16T15:49:23;3.65;;;2.52;;
34657;SDS011;20865;43.312;27.152;2022-10-16T15:51:51;3.22;;;2.02;;
34657;SDS011;20865;43.312;27.152;2022-10-16T15:54:20;3.42;;;1.95;;
34657;SDS011;20865;43.312;27.152;2022-10-16T15:56:48;2.22;;;1.70;;
34657;SDS011;20865;43.312;27.152;2022-10-16T15:59:16;3.12;;;2.10;;
34657;SDS011;20865;43.312;27.152;2022-10-16T16:01:43;6.85;;;2.05;;
34657;SDS011;20865;43.312;27.152;2022-10-16T16:04:11;7.05;;;2.85;;
34657;SDS011;20865;43.312;27.152;2022-10-16T16:06:38;9.60;;;2.85;;
34657;SDS011;20865;43.312;27.152;2022-10-16T16:09:07;7.30;;;3.35;;
34657;SDS011;20865;43.312;27.152;2022-10-16T16:11:35;4.15;;;1.85;;
34657;SDS011;20865;43.312;27.152;2022-10-16T16:14:07;4.42;;;2.27;;
34657;SDS011;20865;43.312;27.152;2022-10-16T16:16:36;5.28;;;1.90;;
34657;SDS011;20865;43.312;27.152;2022-10-16T16:19:05;11.10;;;1.75;;
34657;SDS011;20865;43.312;27.152;2022-10-16T16:21:32;5.20;;;1.85;;
34657;SDS011;20865;43.312;27.152;2022-10-16T16:24:00;4.25;;;2.02;;
34657;SDS011;20865;43.312;27.152;2022-10-16T16:26:30;5.35;;;1.77;;
34657;SDS011;20865;43.312;27.152;2022-10-16T16:28:59;1.75;;;1.50;;
34657;SDS011;20865;43.312;27.152;2022-10-16T16:31:27;3.40;;;2.00;;